ADDS METAR Data INFO
IDs: Format: Raw Decoded Include TAF

Data at: 0200 UTC 19 Jul 2018

KDZB 190155Z AUTO 17006KT 10SM CLR 33/13 A2990 RMK AO2 T03320130
KDZB 190135Z AUTO 18005KT 10SM CLR 34/12 A2990 RMK AO2 T03410124
KDZB 190115Z AUTO 18006KT 10SM CLR 35/12 A2990 RMK AO2 T03530117
KDZB 190055Z AUTO 17005KT 10SM CLR 36/11 A2989 RMK AO2 T03610105
KDZB 190035Z AUTO 17007KT 10SM CLR 37/11 A2989 RMK AO2 T03700108
KDZB 190015Z AUTO 19006KT 10SM CLR 38/10 A2989 RMK AO2 T03750102
KDZB 182355Z AUTO 19005KT 10SM CLR 39/09 A2989 RMK AO2 T03850089 10400 20364
KDZB 182335Z AUTO 15008KT 130V190 10SM CLR 39/09 A2989 RMK AO2 T03860094
KDZB 182315Z AUTO 16009KT 10SM CLR 39/09 A2989 RMK AO2 T03880087
KDZB 182255Z AUTO 20006KT 10SM CLR 39/09 A2990 RMK AO2 T03900088
KDZB 182235Z AUTO 18004KT 10SM CLR 39/09 A2990 RMK AO2 T03920085
KDZB 182215Z AUTO 17007KT 10SM CLR 40/09 A2991 RMK AO2 T03950089
KDZB 182155Z AUTO 17006KT 10SM CLR 40/10 A2991 RMK AO2 T03970100
KDZB 182135Z AUTO 15006KT 10SM CLR 40/11 A2992 RMK AO2 T03950108
KDZB 182115Z AUTO 15008KT 10SM CLR 39/11 A2992 RMK AO2 T03940112
KDZB 182055Z AUTO 16008G14KT 10SM CLR 39/11 A2993 RMK AO2 T03940114
KDZB 182035Z AUTO 18007KT 160V220 10SM CLR 40/11 A2994 RMK AO2 T03960113
KDZB 182015Z AUTO 18009G14KT 10SM CLR 39/12 A2994 RMK AO2 T03870119
KDZB 181955Z AUTO 14006KT 10SM CLR 39/13 A2995 RMK AO2 T03850131
KDZB 181935Z AUTO 23004KT 10SM CLR 38/12 A2996 RMK AO2 T03840120
KDZB 181915Z AUTO 16003KT 10SM CLR 39/12 A2997 RMK AO2 LTG DSNT SE T03850120
KDZB 181855Z AUTO 24005KT 10SM CLR 39/14 A2997 RMK AO2 T03850135
KDZB 181835Z AUTO 19007KT 10SM CLR 38/15 A2999 RMK AO2 T03790145
KDZB 181815Z AUTO 18003KT 10SM CLR 37/14 A3000 RMK AO2 T03700143
KDZB 181755Z AUTO 26005KT 10SM CLR 37/15 A3000 RMK AO2 T03710150 10371 20240
KDZB 181735Z AUTO 18004KT 10SM CLR 36/15 A3001 RMK AO2 T03620152
KDZB 181715Z AUTO 19004KT 10SM CLR 36/16 A3002 RMK AO2 T03600158
KDZB 181655Z AUTO 17006KT 10SM CLR 36/16 A3002 RMK AO2 T03560159
KDZB 181635Z AUTO 24004KT 10SM CLR 35/17 A3002 RMK AO2 T03510165
KDZB 181615Z AUTO 25006KT 10SM CLR 34/18 A3003 RMK AO2 T03400175
KDZB 181555Z AUTO 22005KT 10SM CLR 34/18 A3003 RMK AO2 T03370177
KDZB 181535Z AUTO 24005KT 10SM CLR 33/18 A3003 RMK AO2 T03290181
KDZB 181515Z AUTO 25008KT 10SM CLR 32/18 A3004 RMK AO2 T03220184
KDZB 181455Z AUTO 24008KT 10SM CLR 31/19 A3005 RMK AO2 T03130188
KDZB 181435Z AUTO 24005KT 10SM CLR 31/20 A3005 RMK AO2 T03050200
KDZB 181415Z AUTO 24006KT 10SM CLR 29/21 A3006 RMK AO2 T02930207
KDZB 181355Z AUTO 22004KT 10SM CLR 28/21 A3006 RMK AO2 T02820212
KDZB 181335Z AUTO 21003KT 10SM CLR 27/22 A3006 RMK AO2 T02740219
KDZB 181315Z AUTO 00000KT 10SM CLR 27/22 A3006 RMK AO2 T02650220
KDZB 181255Z AUTO 00000KT 10SM CLR 26/22 A3006 RMK AO2 T02580220
KDZB 181235Z AUTO 23003KT 10SM CLR 25/22 A3005 RMK AO2 T02500220
KDZB 181215Z AUTO 00000KT 10SM CLR 24/22 A3005 RMK AO2 T02400218
KDZB 181155Z AUTO 00000KT 10SM SCT014 24/22 A3005 RMK AO2 T02420217 10275 20242
KDZB 181135Z AUTO 00000KT 10SM SCT014 24/22 A3005 RMK AO2 T02440220
KDZB 181115Z AUTO 00000KT 10SM SCT014 25/22 A3004 RMK AO2 T02450221
KDZB 181055Z AUTO 00000KT 10SM CLR 25/22 A3003 RMK AO2 T02460222
KDZB 181035Z AUTO 00000KT 10SM CLR 25/22 A3003 RMK AO2 T02470221
KDZB 181015Z AUTO 19003KT 10SM CLR 25/22 A3003 RMK AO2 T02480222
KDZB 180955Z AUTO 19003KT 10SM CLR 24/22 A3003 RMK AO2 T02430220
KDZB 180935Z AUTO 00000KT 10SM CLR 25/22 A3004 RMK AO2 T02460219
KDZB 180920Z AUTO 18003KT 10SM CLR 25/22 A3004 RMK AO2 T02470220
KDZB 180855Z AUTO 00000KT 10SM CLR 25/22 A3004 RMK AO2 T02520221
KDZB 180835Z AUTO 20003KT 10SM CLR 26/22 A3003 RMK AO2 T02550222
KDZB 180815Z AUTO 19005KT 10SM CLR 26/22 A3003 RMK AO2 T02560223
KDZB 180755Z AUTO 19006KT 10SM CLR 26/22 A3003 RMK AO2 T02600223
KDZB 180735Z AUTO 18006KT 10SM CLR 26/22 A3003 RMK AO2 T02610220
KDZB 180715Z AUTO 18005KT 10SM CLR 27/22 A3002 RMK AO2 T02650216
KDZB 180655Z AUTO 19009G15KT 10SM CLR 27/21 A3001 RMK AO2 T02650211
KDZB 180635Z AUTO 18009KT 10SM CLR 27/20 A3002 RMK AO2 T02690204
KDZB 180615Z AUTO 17007KT 10SM CLR 27/19 A3002 RMK AO2 T02700190
KDZB 180555Z AUTO 18007KT 10SM CLR 28/18 A3002 RMK AO2 T02750182 10366 20275 403860222
KDZB 180535Z AUTO 18009KT 10SM CLR 28/18 A3002 RMK AO2 T02800180
KDZB 180515Z AUTO 17007KT 10SM CLR 28/17 A3003 RMK AO2 T02810173
KDZB 180455Z AUTO 18005KT 10SM CLR 29/17 A3002 RMK AO2 T02850168
KDZB 180435Z AUTO 17006KT 10SM CLR 29/17 A3002 RMK AO2 T02890165
KDZB 180415Z AUTO 17007KT 10SM CLR 29/16 A3001 RMK AO2 T02920162
KDZB 180355Z AUTO 17005KT 10SM CLR 30/16 A3001 RMK AO2 T02950158
KDZB 180335Z AUTO 17005KT 10SM CLR 30/16 A3001 RMK AO2 T03000155
KDZB 180315Z AUTO 16006KT 10SM CLR 30/15 A3001 RMK AO2 T03000145
KDZB 180255Z AUTO 16006KT 10SM CLR 30/13 A3000 RMK AO2 T03030125
KDZB 180235Z AUTO 18004KT 10SM CLR 31/12 A3000 RMK AO2 T03100120
KDZB 180215Z AUTO 18004KT 10SM CLR 32/12 A3000 RMK AO2 T03160116
KDZB 180155Z AUTO 18005KT 10SM CLR 32/12 A3000 RMK AO2 T03220116
KDZB 180135Z AUTO 18005KT 10SM CLR 33/12 A2999 RMK AO2 LTG DSNT W T03310120
KDZB 180115Z AUTO 18005KT 10SM CLR 34/12 A2999 RMK AO2 T03400120
KDZB 180055Z AUTO 18006KT 10SM CLR 35/12 A2999 RMK AO2 T03510116
KDZB 180035Z AUTO 18005KT 10SM CLR 36/12 A2998 RMK AO2 T03580118
KDZB 180015Z AUTO 17006KT 10SM CLR 37/11 A2998 RMK AO2 T03650110
KDZB 172355Z AUTO 19008KT 10SM CLR 37/11 A2998 RMK AO2 LTG DSNT W T03660106 10386 20351
KDZB 172335Z AUTO 15005KT 10SM CLR 38/10 A2998 RMK AO2 T03750102
KDZB 172315Z AUTO 19006G14KT 10SM CLR 38/10 A2999 RMK AO2 T03790097
KDZB 172255Z AUTO 17007KT 130V210 10SM CLR 38/10 A2999 RMK AO2 T03820101
KDZB 172235Z AUTO 19003KT 10SM CLR 38/08 A3000 RMK AO2 T03810079
KDZB 172215Z AUTO 14003KT 10SM CLR 38/08 A3000 RMK AO2 T03800080
KDZB 172155Z AUTO 14006KT 10SM CLR 38/09 A3000 RMK AO2 T03830090
KDZB 172135Z AUTO 15003KT 10SM CLR 38/08 A3000 RMK AO2 T03810082
KDZB 172115Z AUTO 17006KT 10SM CLR 39/11 A3001 RMK AO2 T03850108
KDZB 172055Z AUTO 13007KT 10SM CLR 39/10 A3002 RMK AO2 T03850100
KDZB 172035Z AUTO 18004G14KT 10SM CLR 38/12 A3003 RMK AO2 T03790117
KDZB 172015Z AUTO 17009G15KT 130V190 10SM CLR 38/12 A3004 RMK AO2 T03780120
KDZB 171955Z AUTO 00000KT 10SM CLR 38/13 A3005 RMK AO2 T03750127
KDZB 171935Z AUTO 17004KT 10SM CLR 37/13 A3006 RMK AO2 T03720126
KDZB 171915Z AUTO 15003KT 10SM CLR 37/13 A3006 RMK AO2 LTG DSNT NW T03680127
KDZB 171855Z AUTO 24007KT 10SM CLR 37/12 A3007 RMK AO2 T03730118
KDZB 171835Z AUTO 00000KT 10SM CLR 37/11 A3008 RMK AO2 T03660110
KDZB 171815Z AUTO 22004KT 10SM CLR 36/13 A3008 RMK AO2 T03630129
KDZB 171755Z AUTO 17007KT 10SM CLR 35/14 A3009 RMK AO2 T03510137 10354 20222
KDZB 171735Z AUTO 19007KT 10SM CLR 35/14 A3010 RMK AO2 T03480136
KDZB 171715Z AUTO 22004KT 10SM CLR 34/15 A3010 RMK AO2 T03410151
KDZB 171655Z AUTO 25007KT 10SM CLR 34/16 A3011 RMK AO2 T03360159
KDZB 171635Z AUTO 24007KT 210V270 10SM CLR 33/16 A3011 RMK AO2 T03300158
KDZB 171615Z AUTO 23008KT 10SM CLR 32/16 A3011 RMK AO2 T03200164
KDZB 171555Z AUTO 19005KT 10SM CLR 31/18 A3011 RMK AO2 T03120180
KDZB 171535Z AUTO 23008KT 200V260 10SM CLR 31/18 A3011 RMK AO2 T03050179
KDZB 171515Z AUTO 21005KT 10SM CLR 30/19 A3012 RMK AO2 T02960187
KDZB 171455Z AUTO 19007G14KT 10SM CLR 29/19 A3012 RMK AO2 T02880191
KDZB 171435Z AUTO 21004KT 10SM CLR 28/20 A3012 RMK AO2 T02800197
KDZB 171415Z AUTO 22004KT 10SM CLR 27/21 A3012 RMK AO2 T02710205